sensor_id;sensor_type;location;lat;lon;timestamp;P1;durP1;ratioP1;P2;durP2;ratioP2
77872;SDS011;67068;52.116;4.440;2023-02-28T00:02:15;4.80;;;1.27;;
77872;SDS011;67068;52.116;4.440;2023-02-28T00:04:42;6.25;;;1.80;;
77872;SDS011;67068;52.116;4.440;2023-02-28T00:07:07;4.23;;;1.20;;
77872;SDS011;67068;52.116;4.440;2023-02-28T00:09:32;5.80;;;1.43;;
77872;SDS011;67068;52.116;4.440;2023-02-28T00:11:58;4.97;;;1.67;;
77872;SDS011;67068;52.116;4.440;2023-02-28T00:14:23;5.53;;;1.42;;
77872;SDS011;67068;52.116;4.440;2023-02-28T00:16:48;5.27;;;1.20;;
77872;SDS011;67068;52.116;4.440;2023-02-28T00:19:13;4.33;;;1.10;;
77872;SDS011;67068;52.116;4.440;2023-02-28T00:21:39;4.73;;;1.30;;
77872;SDS011;67068;52.116;4.440;2023-02-28T00:24:06;4.43;;;1.35;;
77872;SDS011;67068;52.116;4.440;2023-02-28T00:26:31;4.05;;;1.13;;
77872;SDS011;67068;52.116;4.440;2023-02-28T00:28:56;5.77;;;1.60;;
77872;SDS011;67068;52.116;4.440;2023-02-28T00:31:21;5.73;;;1.40;;
77872;SDS011;67068;52.116;4.440;2023-02-28T00:33:47;5.70;;;1.30;;
77872;SDS011;67068;52.116;4.440;2023-02-28T00:36:12;4.87;;;1.10;;
77872;SDS011;67068;52.116;4.440;2023-02-28T00:38:38;5.90;;;1.27;;
77872;SDS011;67068;52.116;4.440;2023-02-28T00:41:03;6.07;;;1.42;;
77872;SDS011;67068;52.116;4.440;2023-02-28T00:43:29;6.00;;;1.23;;
77872;SDS011;67068;52.116;4.440;2023-02-28T00:45:55;4.88;;;1.17;;
77872;SDS011;67068;52.116;4.440;2023-02-28T00:48:20;4.83;;;1.30;;
77872;SDS011;67068;52.116;4.440;2023-02-28T00:50:47;4.22;;;1.23;;
77872;SDS011;67068;52.116;4.440;2023-02-28T00:53:13;4.30;;;1.15;;
77872;SDS011;67068;52.116;4.440;2023-02-28T00:55:38;4.63;;;1.30;;
77872;SDS011;67068;52.116;4.440;2023-02-28T00:58:03;4.80;;;1.27;;
77872;SDS011;67068;52.116;4.440;2023-02-28T01:00:28;4.77;;;1.10;;
77872;SDS011;67068;52.116;4.440;2023-02-28T01:02:54;3.03;;;1.03;;
77872;SDS011;67068;52.116;4.440;2023-02-28T01:05:19;5.07;;;1.00;;
77872;SDS011;67068;52.116;4.440;2023-02-28T01:07:44;5.37;;;1.20;;
77872;SDS011;67068;52.116;4.440;2023-02-28T01:10:09;5.83;;;1.40;;
77872;SDS011;67068;52.116;4.440;2023-02-28T01:12:35;5.55;;;1.40;;
77872;SDS011;67068;52.116;4.440;2023-02-28T01:15:00;4.27;;;0.90;;
77872;SDS011;67068;52.116;4.440;2023-02-28T01:17:25;4.87;;;1.47;;
77872;SDS011;67068;52.116;4.440;2023-02-28T01:19:52;4.70;;;1.10;;
77872;SDS011;67068;52.116;4.440;2023-02-28T01:22:18;5.10;;;1.17;;
77872;SDS011;67068;52.116;4.440;2023-02-28T01:24:43;2.30;;;0.80;;
77872;SDS011;67068;52.116;4.440;2023-02-28T01:27:08;4.73;;;1.33;;
77872;SDS011;67068;52.116;4.440;2023-02-28T01:29:33;4.37;;;1.07;;
77872;SDS011;67068;52.116;4.440;2023-02-28T01:31:58;4.73;;;1.27;;
77872;SDS011;67068;52.116;4.440;2023-02-28T01:34:24;4.22;;;1.17;;
77872;SDS011;67068;52.116;4.440;2023-02-28T01:36:49;4.03;;;1.10;;
77872;SDS011;67068;52.116;4.440;2023-02-28T01:39:14;5.03;;;1.10;;
77872;SDS011;67068;52.116;4.440;2023-02-28T01:41:40;4.53;;;1.27;;
77872;SDS011;67068;52.116;4.440;2023-02-28T01:44:06;4.05;;;1.23;;
77872;SDS011;67068;52.116;4.440;2023-02-28T01:46:35;3.72;;;1.23;;
77872;SDS011;67068;52.116;4.440;2023-02-28T01:49:11;3.33;;;1.00;;
77872;SDS011;67068;52.116;4.440;2023-02-28T01:51:42;4.72;;;1.25;;
77872;SDS011;67068;52.116;4.440;2023-02-28T01:54:11;4.25;;;1.08;;
77872;SDS011;67068;52.116;4.440;2023-02-28T01:56:38;4.93;;;1.08;;
77872;SDS011;67068;52.116;4.440;2023-02-28T01:59:06;5.93;;;1.20;;
77872;SDS011;67068;52.116;4.440;2023-02-28T02:01:31;5.27;;;1.30;;
77872;SDS011;67068;52.116;4.440;2023-02-28T02:03:57;2.93;;;0.97;;
77872;SDS011;67068;52.116;4.440;2023-02-28T02:06:37;2.70;;;0.90;;
77872;SDS011;67068;52.116;4.440;2023-02-28T02:09:03;5.20;;;1.23;;
77872;SDS011;67068;52.116;4.440;2023-02-28T02:11:28;3.20;;;1.00;;
77872;SDS011;67068;52.116;4.440;2023-02-28T02:18:52;3.87;;;1.07;;
77872;SDS011;67068;52.116;4.440;2023-02-28T02:21:25;5.00;;;1.00;;
77872;SDS011;67068;52.116;4.440;2023-02-28T02:24:09;3.58;;;0.93;;
77872;SDS011;67068;52.116;4.440;2023-02-28T02:26:54;4.15;;;1.15;;
77872;SDS011;67068;52.116;4.440;2023-02-28T02:39:40;5.05;;;1.15;;
77872;SDS011;67068;52.116;4.440;2023-02-28T02:42:11;4.70;;;1.30;;
77872;SDS011;67068;52.116;4.440;2023-02-28T02:44:40;4.30;;;1.00;;
77872;SDS011;67068;52.116;4.440;2023-02-28T02:47:10;3.55;;;1.02;;
77872;SDS011;67068;52.116;4.440;2023-02-28T02:49:37;4.88;;;1.15;;
77872;SDS011;67068;52.116;4.440;2023-02-28T02:52:04;4.10;;;1.00;;
77872;SDS011;67068;52.116;4.440;2023-02-28T02:54:32;3.70;;;1.10;;
77872;SDS011;67068;52.116;4.440;2023-02-28T02:56:59;4.13;;;0.93;;
77872;SDS011;67068;52.116;4.440;2023-02-28T02:59:26;5.70;;;1.17;;
77872;SDS011;67068;52.116;4.440;2023-02-28T03:01:54;3.30;;;0.90;;
77872;SDS011;67068;52.116;4.440;2023-02-28T03:04:21;3.30;;;1.15;;
77872;SDS011;67068;52.116;4.440;2023-02-28T03:06:47;4.57;;;0.93;;
77872;SDS011;67068;52.116;4.440;2023-02-28T03:09:12;3.90;;;0.88;;
77872;SDS011;67068;52.116;4.440;2023-02-28T03:11:38;3.53;;;1.00;;
77872;SDS011;67068;52.116;4.440;2023-02-28T03:16:57;4.65;;;1.20;;
77872;SDS011;67068;52.116;4.440;2023-02-28T03:28:22;4.03;;;1.25;;
77872;SDS011;67068;52.116;4.440;2023-02-28T03:35:39;3.90;;;1.10;;
77872;SDS011;67068;52.116;4.440;2023-02-28T03:38:10;2.17;;;0.77;;
77872;SDS011;67068;52.116;4.440;2023-02-28T03:40:39;3.67;;;1.05;;
77872;SDS011;67068;52.116;4.440;2023-02-28T03:43:08;3.63;;;1.02;;
77872;SDS011;67068;52.116;4.440;2023-02-28T03:45:35;5.32;;;1.30;;
77872;SDS011;67068;52.116;4.440;2023-02-28T03:48:05;3.78;;;1.10;;
77872;SDS011;67068;52.116;4.440;2023-02-28T03:53:04;5.45;;;1.25;;
77872;SDS011;67068;52.116;4.440;2023-02-28T03:55:33;3.78;;;1.15;;
77872;SDS011;67068;52.116;4.440;2023-02-28T04:00:35;3.72;;;1.02;;
77872;SDS011;67068;52.116;4.440;2023-02-28T04:03:02;4.63;;;1.30;;
77872;SDS011;67068;52.116;4.440;2023-02-28T04:05:27;3.22;;;1.20;;
77872;SDS011;67068;52.116;4.440;2023-02-28T04:07:54;3.33;;;0.90;;
77872;SDS011;67068;52.116;4.440;2023-02-28T04:10:19;4.60;;;1.00;;
77872;SDS011;67068;52.116;4.440;2023-02-28T04:12:44;3.97;;;1.15;;
77872;SDS011;67068;52.116;4.440;2023-02-28T04:15:10;4.27;;;1.00;;
77872;SDS011;67068;52.116;4.440;2023-02-28T04:17:36;4.38;;;0.93;;
77872;SDS011;67068;52.116;4.440;2023-02-28T04:20:01;5.40;;;1.10;;
77872;SDS011;67068;52.116;4.440;2023-02-28T04:22:28;5.88;;;1.17;;
77872;SDS011;67068;52.116;4.440;2023-02-28T04:24:53;4.73;;;1.20;;
77872;SDS011;67068;52.116;4.440;2023-02-28T04:27:19;3.05;;;0.90;;
77872;SDS011;67068;52.116;4.440;2023-02-28T04:29:45;4.50;;;1.15;;
77872;SDS011;67068;52.116;4.440;2023-02-28T04:32:10;5.50;;;1.03;;
77872;SDS011;67068;52.116;4.440;2023-02-28T04:34:35;3.67;;;0.90;;
77872;SDS011;67068;52.116;4.440;2023-02-28T04:37:01;2.43;;;0.87;;
77872;SDS011;67068;52.116;4.440;2023-02-28T04:39:26;3.60;;;1.15;;
77872;SDS011;67068;52.116;4.440;2023-02-28T04:41:51;4.13;;;0.77;;
77872;SDS011;67068;52.116;4.440;2023-02-28T04:44:17;5.73;;;1.20;;
77872;SDS011;67068;52.116;4.440;2023-02-28T04:46:42;4.07;;;1.00;;
77872;SDS011;67068;52.116;4.440;2023-02-28T04:49:08;3.22;;;0.93;;
77872;SDS011;67068;52.116;4.440;2023-02-28T04:51:34;5.32;;;1.00;;
77872;SDS011;67068;52.116;4.440;2023-02-28T04:54:00;4.33;;;1.00;;
77872;SDS011;67068;52.116;4.440;2023-02-28T04:56:25;5.23;;;1.10;;
77872;SDS011;67068;52.116;4.440;2023-02-28T04:58:50;4.47;;;1.00;;
77872;SDS011;67068;52.116;4.440;2023-02-28T05:03:46;7.38;;;1.20;;
77872;SDS011;67068;52.116;4.440;2023-02-28T05:06:12;4.15;;;0.90;;
77872;SDS011;67068;52.116;4.440;2023-02-28T05:08:37;4.63;;;1.30;;
77872;SDS011;67068;52.116;4.440;2023-02-28T05:11:03;4.10;;;1.20;;
77872;SDS011;67068;52.116;4.440;2023-02-28T05:13:28;4.20;;;1.13;;
77872;SDS011;67068;52.116;4.440;2023-02-28T05:15:54;3.58;;;1.10;;
77872;SDS011;67068;52.116;4.440;2023-02-28T05:18:19;4.50;;;1.05;;
77872;SDS011;67068;52.116;4.440;2023-02-28T05:20:45;3.50;;;0.90;;
77872;SDS011;67068;52.116;4.440;2023-02-28T05:23:13;5.27;;;1.20;;
77872;SDS011;67068;52.116;4.440;2023-02-28T05:25:38;2.22;;;0.93;;
77872;SDS011;67068;52.116;4.440;2023-02-28T05:28:04;3.47;;;1.08;;
77872;SDS011;67068;52.116;4.440;2023-02-28T05:30:29;5.30;;;1.10;;
77872;SDS011;67068;52.116;4.440;2023-02-28T05:32:55;2.57;;;0.90;;
77872;SDS011;67068;52.116;4.440;2023-02-28T05:35:20;4.10;;;0.82;;
77872;SDS011;67068;52.116;4.440;2023-02-28T05:37:45;4.43;;;1.20;;
77872;SDS011;67068;52.116;4.440;2023-02-28T05:40:10;3.20;;;0.77;;
77872;SDS011;67068;52.116;4.440;2023-02-28T05:42:36;3.05;;;0.90;;
77872;SDS011;67068;52.116;4.440;2023-02-28T05:45:01;5.30;;;1.08;;
77872;SDS011;67068;52.116;4.440;2023-02-28T05:47:26;4.30;;;1.50;;
77872;SDS011;67068;52.116;4.440;2023-02-28T05:49:52;3.40;;;1.00;;
77872;SDS011;67068;52.116;4.440;2023-02-28T05:52:17;3.50;;;0.87;;
77872;SDS011;67068;52.116;4.440;2023-02-28T05:54:42;3.37;;;1.00;;
77872;SDS011;67068;52.116;4.440;2023-02-28T05:57:07;5.07;;;1.10;;
77872;SDS011;67068;52.116;4.440;2023-02-28T05:59:32;3.67;;;0.90;;
77872;SDS011;67068;52.116;4.440;2023-02-28T06:01:58;4.70;;;1.10;;
77872;SDS011;67068;52.116;4.440;2023-02-28T06:04:23;3.47;;;0.93;;
77872;SDS011;67068;52.116;4.440;2023-02-28T06:06:49;4.37;;;0.90;;
77872;SDS011;67068;52.116;4.440;2023-02-28T06:09:14;3.13;;;0.80;;
77872;SDS011;67068;52.116;4.440;2023-02-28T06:11:40;3.33;;;0.80;;
77872;SDS011;67068;52.116;4.440;2023-02-28T06:14:05;5.43;;;0.90;;
77872;SDS011;67068;52.116;4.440;2023-02-28T06:16:32;4.13;;;1.05;;
77872;SDS011;67068;52.116;4.440;2023-02-28T06:18:57;2.67;;;0.82;;
77872;SDS011;67068;52.116;4.440;2023-02-28T06:21:23;2.15;;;0.73;;
77872;SDS011;67068;52.116;4.440;2023-02-28T06:23:49;3.45;;;0.90;;
77872;SDS011;67068;52.116;4.440;2023-02-28T06:26:14;4.22;;;1.10;;
77872;SDS011;67068;52.116;4.440;2023-02-28T06:28:39;3.30;;;0.87;;
77872;SDS011;67068;52.116;4.440;2023-02-28T06:31:06;4.07;;;0.90;;
77872;SDS011;67068;52.116;4.440;2023-02-28T06:33:31;4.53;;;1.10;;
77872;SDS011;67068;52.116;4.440;2023-02-28T06:35:56;2.77;;;1.00;;
77872;SDS011;67068;52.116;4.440;2023-02-28T06:38:21;3.30;;;1.00;;
77872;SDS011;67068;52.116;4.440;2023-02-28T06:40:52;3.40;;;1.07;;
77872;SDS011;67068;52.116;4.440;2023-02-28T06:43:18;2.90;;;1.00;;
77872;SDS011;67068;52.116;4.440;2023-02-28T06:45:43;4.97;;;1.10;;
77872;SDS011;67068;52.116;4.440;2023-02-28T06:48:09;2.58;;;0.88;;
77872;SDS011;67068;52.116;4.440;2023-02-28T06:50:35;3.65;;;1.00;;
77872;SDS011;67068;52.116;4.440;2023-02-28T06:53:00;4.13;;;1.03;;
77872;SDS011;67068;52.116;4.440;2023-02-28T06:55:25;3.80;;;1.10;;
77872;SDS011;67068;52.116;4.440;2023-02-28T06:57:50;3.83;;;1.00;;
77872;SDS011;67068;52.116;4.440;2023-02-28T07:00:16;4.77;;;1.10;;
77872;SDS011;67068;52.116;4.440;2023-02-28T07:02:41;4.38;;;1.05;;
77872;SDS011;67068;52.116;4.440;2023-02-28T07:05:06;3.90;;;1.20;;
77872;SDS011;67068;52.116;4.440;2023-02-28T07:07:32;3.63;;;1.25;;
77872;SDS011;67068;52.116;4.440;2023-02-28T07:09:57;2.97;;;1.00;;
77872;SDS011;67068;52.116;4.440;2023-02-28T07:12:22;5.27;;;1.40;;
77872;SDS011;67068;52.116;4.440;2023-02-28T07:14:47;2.73;;;1.07;;
77872;SDS011;67068;52.116;4.440;2023-02-28T07:17:13;4.33;;;1.10;;
77872;SDS011;67068;52.116;4.440;2023-02-28T07:19:38;5.13;;;1.20;;
77872;SDS011;67068;52.116;4.440;2023-02-28T07:22:04;4.40;;;1.15;;
77872;SDS011;67068;52.116;4.440;2023-02-28T07:24:29;4.88;;;1.10;;
77872;SDS011;67068;52.116;4.440;2023-02-28T07:26:55;4.53;;;1.10;;
77872;SDS011;67068;52.116;4.440;2023-02-28T07:29:20;3.53;;;1.00;;
77872;SDS011;67068;52.116;4.440;2023-02-28T07:31:45;5.05;;;1.13;;
77872;SDS011;67068;52.116;4.440;2023-02-28T07:34:11;4.30;;;1.25;;
77872;SDS011;67068;52.116;4.440;2023-02-28T07:36:36;4.10;;;1.17;;
77872;SDS011;67068;52.116;4.440;2023-02-28T07:39:02;4.47;;;1.10;;
77872;SDS011;67068;52.116;4.440;2023-02-28T07:41:27;3.78;;;1.13;;
77872;SDS011;67068;52.116;4.440;2023-02-28T07:43:54;4.43;;;1.00;;
77872;SDS011;67068;52.116;4.440;2023-02-28T07:46:22;4.05;;;0.90;;
77872;SDS011;67068;52.116;4.440;2023-02-28T07:48:47;5.95;;;1.08;;
77872;SDS011;67068;52.116;4.440;2023-02-28T07:51:12;5.30;;;0.93;;
77872;SDS011;67068;52.116;4.440;2023-02-28T07:53:38;3.40;;;1.03;;
77872;SDS011;67068;52.116;4.440;2023-02-28T07:56:03;3.77;;;1.00;;
77872;SDS011;67068;52.116;4.440;2023-02-28T07:58:29;5.55;;;1.00;;
77872;SDS011;67068;52.116;4.440;2023-02-28T08:00:54;7.85;;;1.58;;
77872;SDS011;67068;52.116;4.440;2023-02-28T08:03:21;4.90;;;1.05;;
77872;SDS011;67068;52.116;4.440;2023-02-28T08:05:46;4.63;;;1.00;;
77872;SDS011;67068;52.116;4.440;2023-02-28T08:08:12;5.45;;;1.38;;
77872;SDS011;67068;52.116;4.440;2023-02-28T08:10:38;4.63;;;1.02;;
77872;SDS011;67068;52.116;4.440;2023-02-28T08:13:03;3.53;;;0.83;;
77872;SDS011;67068;52.116;4.440;2023-02-28T08:15:28;7.10;;;1.50;;
77872;SDS011;67068;52.116;4.440;2023-02-28T08:17:54;5.70;;;1.30;;
77872;SDS011;67068;52.116;4.440;2023-02-28T08:20:21;5.25;;;1.08;;
77872;SDS011;67068;52.116;4.440;2023-02-28T08:22:46;3.83;;;1.00;;
77872;SDS011;67068;52.116;4.440;2023-02-28T08:25:11;5.87;;;1.10;;
77872;SDS011;67068;52.116;4.440;2023-02-28T08:27:36;5.03;;;1.00;;
77872;SDS011;67068;52.116;4.440;2023-02-28T08:30:02;4.40;;;1.10;;
77872;SDS011;67068;52.116;4.440;2023-02-28T08:32:28;4.57;;;1.05;;
77872;SDS011;67068;52.116;4.440;2023-02-28T08:34:53;5.07;;;1.27;;
77872;SDS011;67068;52.116;4.440;2023-02-28T08:37:18;6.83;;;1.20;;
77872;SDS011;67068;52.116;4.440;2023-02-28T08:39:44;3.10;;;0.90;;
77872;SDS011;67068;52.116;4.440;2023-02-28T08:42:09;4.47;;;1.00;;
77872;SDS011;67068;52.116;4.440;2023-02-28T08:44:34;4.77;;;1.10;;
77872;SDS011;67068;52.116;4.440;2023-02-28T08:46:59;3.73;;;1.10;;
77872;SDS011;67068;52.116;4.440;2023-02-28T08:49:25;4.10;;;1.10;;
77872;SDS011;67068;52.116;4.440;2023-02-28T08:51:50;4.43;;;1.10;;
77872;SDS011;67068;52.116;4.440;2023-02-28T08:54:15;5.07;;;1.30;;
77872;SDS011;67068;52.116;4.440;2023-02-28T08:56:44;6.15;;;1.60;;
77872;SDS011;67068;52.116;4.440;2023-02-28T08:59:09;6.03;;;1.30;;
77872;SDS011;67068;52.116;4.440;2023-02-28T09:01:35;5.03;;;1.33;;
77872;SDS011;67068;52.116;4.440;2023-02-28T09:04:01;4.78;;;1.25;;
77872;SDS011;67068;52.116;4.440;2023-02-28T09:06:27;5.57;;;1.40;;
77872;SDS011;67068;52.116;4.440;2023-02-28T09:08:52;6.23;;;1.60;;
77872;SDS011;67068;52.116;4.440;2023-02-28T09:11:18;6.15;;;1.30;;
77872;SDS011;67068;52.116;4.440;2023-02-28T09:13:44;6.03;;;1.27;;
77872;SDS011;67068;52.116;4.440;2023-02-28T09:16:10;6.68;;;1.40;;
77872;SDS011;67068;52.116;4.440;2023-02-28T09:18:36;7.93;;;1.42;;
77872;SDS011;67068;52.116;4.440;2023-02-28T09:21:08;7.13;;;1.50;;
77872;SDS011;67068;52.116;4.440;2023-02-28T09:23:34;138.18;;;78.40;;
77872;SDS011;67068;52.116;4.440;2023-02-28T09:25:59;50.10;;;28.73;;
77872;SDS011;67068;52.116;4.440;2023-02-28T09:28:25;32.33;;;17.37;;
77872;SDS011;67068;52.116;4.440;2023-02-28T09:30:51;34.33;;;18.33;;
77872;SDS011;67068;52.116;4.440;2023-02-28T09:33:17;28.42;;;14.23;;
77872;SDS011;67068;52.116;4.440;2023-02-28T09:35:43;24.65;;;13.13;;
77872;SDS011;67068;52.116;4.440;2023-02-28T09:38:09;26.98;;;13.95;;
77872;SDS011;67068;52.116;4.440;2023-02-28T09:40:36;24.75;;;12.85;;
77872;SDS011;67068;52.116;4.440;2023-02-28T09:43:01;28.08;;;14.48;;
77872;SDS011;67068;52.116;4.440;2023-02-28T09:45:29;25.25;;;12.75;;
77872;SDS011;67068;52.116;4.440;2023-02-28T09:47:56;25.08;;;12.48;;
77872;SDS011;67068;52.116;4.440;2023-02-28T09:52:51;23.02;;;11.93;;
77872;SDS011;67068;52.116;4.440;2023-02-28T09:58:01;26.02;;;12.38;;
77872;SDS011;67068;52.116;4.440;2023-02-28T10:00:31;23.83;;;12.13;;
77872;SDS011;67068;52.116;4.440;2023-02-28T10:05:41;21.77;;;11.52;;
77872;SDS011;67068;52.116;4.440;2023-02-28T10:08:14;22.38;;;10.88;;
77872;SDS011;67068;52.116;4.440;2023-02-28T10:10:45;21.83;;;11.07;;
77872;SDS011;67068;52.116;4.440;2023-02-28T10:13:13;19.80;;;10.60;;
77872;SDS011;67068;52.116;4.440;2023-02-28T10:15:39;21.48;;;11.13;;
77872;SDS011;67068;52.116;4.440;2023-02-28T10:18:08;18.95;;;10.23;;
77872;SDS011;67068;52.116;4.440;2023-02-28T10:20:37;20.63;;;10.18;;
77872;SDS011;67068;52.116;4.440;2023-02-28T10:23:08;20.92;;;9.95;;
77872;SDS011;67068;52.116;4.440;2023-02-28T10:25:35;21.33;;;10.38;;
77872;SDS011;67068;52.116;4.440;2023-02-28T10:28:11;20.00;;;9.30;;
77872;SDS011;67068;52.116;4.440;2023-02-28T10:30:37;20.90;;;9.70;;
77872;SDS011;67068;52.116;4.440;2023-02-28T10:33:04;18.50;;;8.68;;
77872;SDS011;67068;52.116;4.440;2023-02-28T10:35:29;19.40;;;9.17;;
77872;SDS011;67068;52.116;4.440;2023-02-28T10:37:55;17.63;;;8.68;;
77872;SDS011;67068;52.116;4.440;2023-02-28T10:42:59;18.98;;;8.63;;
77872;SDS011;67068;52.116;4.440;2023-02-28T10:45:26;17.38;;;7.90;;
77872;SDS011;67068;52.116;4.440;2023-02-28T10:47:53;18.92;;;8.27;;
77872;SDS011;67068;52.116;4.440;2023-02-28T10:53:12;20.10;;;7.82;;
77872;SDS011;67068;52.116;4.440;2023-02-28T10:55:39;18.13;;;8.27;;
77872;SDS011;67068;52.116;4.440;2023-02-28T10:58:14;18.77;;;7.83;;
77872;SDS011;67068;52.116;4.440;2023-02-28T11:03:28;20.75;;;7.00;;
77872;SDS011;67068;52.116;4.440;2023-02-28T11:05:54;16.27;;;6.70;;
77872;SDS011;67068;52.116;4.440;2023-02-28T11:08:20;18.73;;;7.97;;
77872;SDS011;67068;52.116;4.440;2023-02-28T11:10:46;17.33;;;7.38;;
77872;SDS011;67068;52.116;4.440;2023-02-28T11:13:17;19.17;;;7.68;;
77872;SDS011;67068;52.116;4.440;2023-02-28T11:15:48;17.33;;;7.78;;
77872;SDS011;67068;52.116;4.440;2023-02-28T11:18:19;17.50;;;7.70;;
77872;SDS011;67068;52.116;4.440;2023-02-28T11:20:47;19.35;;;8.13;;
77872;SDS011;67068;52.116;4.440;2023-02-28T11:23:13;16.80;;;7.63;;
77872;SDS011;67068;52.116;4.440;2023-02-28T11:25:39;19.80;;;8.45;;
77872;SDS011;67068;52.116;4.440;2023-02-28T11:28:05;16.88;;;7.60;;
77872;SDS011;67068;52.116;4.440;2023-02-28T11:35:31;16.70;;;6.53;;
77872;SDS011;67068;52.116;4.440;2023-02-28T11:37:59;15.43;;;6.53;;
77872;SDS011;67068;52.116;4.440;2023-02-28T11:40:28;14.98;;;6.30;;
77872;SDS011;67068;52.116;4.440;2023-02-28T11:45:36;13.90;;;5.88;;
77872;SDS011;67068;52.116;4.440;2023-02-28T11:55:36;12.75;;;5.53;;
77872;SDS011;67068;52.116;4.440;2023-02-28T12:03:39;11.15;;;4.22;;
77872;SDS011;67068;52.116;4.440;2023-02-28T12:19:48;10.02;;;3.92;;
77872;SDS011;67068;52.116;4.440;2023-02-28T12:22:27;11.95;;;3.60;;
77872;SDS011;67068;52.116;4.440;2023-02-28T12:27:25;10.55;;;3.55;;
77872;SDS011;67068;52.116;4.440;2023-02-28T12:30:02;10.23;;;3.85;;
77872;SDS011;67068;52.116;4.440;2023-02-28T12:35:54;11.43;;;3.30;;
77872;SDS011;67068;52.116;4.440;2023-02-28T12:40:18;10.52;;;3.38;;
77872;SDS011;67068;52.116;4.440;2023-02-28T12:42:45;9.88;;;3.40;;
77872;SDS011;67068;52.116;4.440;2023-02-28T12:45:13;9.52;;;3.25;;
77872;SDS011;67068;52.116;4.440;2023-02-28T12:47:40;11.57;;;3.50;;
77872;SDS011;67068;52.116;4.440;2023-02-28T12:50:08;9.75;;;2.97;;
77872;SDS011;67068;52.116;4.440;2023-02-28T12:55:22;9.25;;;2.50;;
77872;SDS011;67068;52.116;4.440;2023-02-28T12:57:53;8.88;;;3.00;;
77872;SDS011;67068;52.116;4.440;2023-02-28T13:00:22;8.88;;;3.03;;
77872;SDS011;67068;52.116;4.440;2023-02-28T13:10:13;9.50;;;2.92;;
77872;SDS011;67068;52.116;4.440;2023-02-28T13:12:48;8.38;;;2.60;;
77872;SDS011;67068;52.116;4.440;2023-02-28T13:15:19;8.23;;;2.60;;
77872;SDS011;67068;52.116;4.440;2023-02-28T13:17:54;8.90;;;2.88;;
77872;SDS011;67068;52.116;4.440;2023-02-28T13:20:20;7.50;;;2.13;;
77872;SDS011;67068;52.116;4.440;2023-02-28T13:22:48;8.75;;;2.63;;
77872;SDS011;67068;52.116;4.440;2023-02-28T13:27:48;7.43;;;2.00;;
77872;SDS011;67068;52.116;4.440;2023-02-28T13:35:48;8.13;;;2.38;;
77872;SDS011;67068;52.116;4.440;2023-02-28T13:38:32;7.72;;;2.72;;
77872;SDS011;67068;52.116;4.440;2023-02-28T13:41:26;7.45;;;2.35;;
77872;SDS011;67068;52.116;4.440;2023-02-28T13:44:03;7.03;;;2.22;;
77872;SDS011;67068;52.116;4.440;2023-02-28T13:46:28;7.28;;;2.03;;
77872;SDS011;67068;52.116;4.440;2023-02-28T13:48:54;6.55;;;1.92;;
77872;SDS011;67068;52.116;4.440;2023-02-28T13:51:53;7.53;;;2.17;;
77872;SDS011;67068;52.116;4.440;2023-02-28T14:06:52;6.93;;;2.00;;
77872;SDS011;67068;52.116;4.440;2023-02-28T14:09:23;7.57;;;1.55;;
77872;SDS011;67068;52.116;4.440;2023-02-28T14:11:50;7.05;;;1.73;;
77872;SDS011;67068;52.116;4.440;2023-02-28T14:16:59;7.38;;;2.22;;
77872;SDS011;67068;52.116;4.440;2023-02-28T14:19:28;4.77;;;1.40;;
77872;SDS011;67068;52.116;4.440;2023-02-28T14:24:46;5.45;;;1.30;;
77872;SDS011;67068;52.116;4.440;2023-02-28T14:38:13;5.30;;;1.25;;
77872;SDS011;67068;52.116;4.440;2023-02-28T14:40:39;5.18;;;1.45;;
77872;SDS011;67068;52.116;4.440;2023-02-28T14:43:06;4.35;;;1.20;;
77872;SDS011;67068;52.116;4.440;2023-02-28T14:45:32;4.68;;;1.40;;
77872;SDS011;67068;52.116;4.440;2023-02-28T14:47:58;3.67;;;1.10;;
77872;SDS011;67068;52.116;4.440;2023-02-28T14:50:29;5.55;;;0.95;;
77872;SDS011;67068;52.116;4.440;2023-02-28T14:52:55;5.18;;;1.00;;
77872;SDS011;67068;52.116;4.440;2023-02-28T14:55:27;4.77;;;1.33;;
77872;SDS011;67068;52.116;4.440;2023-02-28T14:57:54;4.53;;;1.15;;
77872;SDS011;67068;52.116;4.440;2023-02-28T15:03:22;5.43;;;1.10;;
77872;SDS011;67068;52.116;4.440;2023-02-28T15:05:52;6.22;;;1.45;;
77872;SDS011;67068;52.116;4.440;2023-02-28T15:08:17;4.30;;;1.30;;
77872;SDS011;67068;52.116;4.440;2023-02-28T15:10:51;3.70;;;1.00;;
77872;SDS011;67068;52.116;4.440;2023-02-28T15:13:16;4.88;;;1.30;;
77872;SDS011;67068;52.116;4.440;2023-02-28T15:15:52;5.15;;;1.17;;
77872;SDS011;67068;52.116;4.440;2023-02-28T15:18:27;3.67;;;1.15;;
77872;SDS011;67068;52.116;4.440;2023-02-28T15:20:55;4.13;;;1.15;;
77872;SDS011;67068;52.116;4.440;2023-02-28T15:23:20;5.13;;;1.20;;
77872;SDS011;67068;52.116;4.440;2023-02-28T15:25:46;4.18;;;1.00;;
77872;SDS011;67068;52.116;4.440;2023-02-28T15:28:16;4.53;;;1.02;;
77872;SDS011;67068;52.116;4.440;2023-02-28T15:30:51;5.38;;;1.30;;
77872;SDS011;67068;52.116;4.440;2023-02-28T15:35:41;4.67;;;0.93;;
77872;SDS011;67068;52.116;4.440;2023-02-28T15:38:15;3.85;;;1.08;;
77872;SDS011;67068;52.116;4.440;2023-02-28T15:40:41;4.20;;;0.98;;
77872;SDS011;67068;52.116;4.440;2023-02-28T15:43:14;3.35;;;0.82;;
77872;SDS011;67068;52.116;4.440;2023-02-28T15:48:21;3.85;;;1.00;;
77872;SDS011;67068;52.116;4.440;2023-02-28T15:50:57;3.80;;;0.90;;
77872;SDS011;67068;52.116;4.440;2023-02-28T15:53:27;3.15;;;0.85;;
77872;SDS011;67068;52.116;4.440;2023-02-28T15:56:01;2.38;;;0.80;;
77872;SDS011;67068;52.116;4.440;2023-02-28T15:58:26;5.30;;;1.00;;
77872;SDS011;67068;52.116;4.440;2023-02-28T16:01:06;2.67;;;0.80;;
77872;SDS011;67068;52.116;4.440;2023-02-28T16:03:37;3.50;;;1.00;;
77872;SDS011;67068;52.116;4.440;2023-02-28T16:06:19;3.55;;;0.90;;
77872;SDS011;67068;52.116;4.440;2023-02-28T16:08:47;2.33;;;0.80;;
77872;SDS011;67068;52.116;4.440;2023-02-28T16:11:13;3.30;;;0.80;;
77872;SDS011;67068;52.116;4.440;2023-02-28T16:13:39;5.55;;;1.00;;
77872;SDS011;67068;52.116;4.440;2023-02-28T16:16:04;2.47;;;0.90;;
77872;SDS011;67068;52.116;4.440;2023-02-28T16:18:29;3.22;;;0.80;;
77872;SDS011;67068;52.116;4.440;2023-02-28T16:20:55;3.43;;;0.80;;
77872;SDS011;67068;52.116;4.440;2023-02-28T16:23:20;9.87;;;1.10;;
77872;SDS011;67068;52.116;4.440;2023-02-28T16:25:45;3.20;;;0.90;;
77872;SDS011;67068;52.116;4.440;2023-02-28T16:28:20;4.75;;;1.02;;
77872;SDS011;67068;52.116;4.440;2023-02-28T16:30:46;2.78;;;0.77;;
77872;SDS011;67068;52.116;4.440;2023-02-28T16:33:11;3.10;;;1.00;;
77872;SDS011;67068;52.116;4.440;2023-02-28T16:35:36;3.80;;;0.93;;
77872;SDS011;67068;52.116;4.440;2023-02-28T16:38:01;2.07;;;0.70;;
77872;SDS011;67068;52.116;4.440;2023-02-28T16:40:27;2.67;;;0.90;;
77872;SDS011;67068;52.116;4.440;2023-02-28T16:42:55;2.75;;;0.88;;
77872;SDS011;67068;52.116;4.440;2023-02-28T16:45:22;4.25;;;0.70;;
77872;SDS011;67068;52.116;4.440;2023-02-28T16:47:47;5.80;;;0.90;;
77872;SDS011;67068;52.116;4.440;2023-02-28T16:50:34;3.55;;;0.82;;
77872;SDS011;67068;52.116;4.440;2023-02-28T16:52:58;3.90;;;1.02;;
77872;SDS011;67068;52.116;4.440;2023-02-28T16:55:24;2.03;;;0.80;;
77872;SDS011;67068;52.116;4.440;2023-02-28T16:57:51;3.03;;;0.90;;
77872;SDS011;67068;52.116;4.440;2023-02-28T17:00:16;3.03;;;0.73;;
77872;SDS011;67068;52.116;4.440;2023-02-28T17:02:42;1.63;;;0.50;;
77872;SDS011;67068;52.116;4.440;2023-02-28T17:05:08;3.33;;;0.90;;
77872;SDS011;67068;52.116;4.440;2023-02-28T17:07:33;2.83;;;0.80;;
77872;SDS011;67068;52.116;4.440;2023-02-28T17:09:58;3.27;;;0.83;;
77872;SDS011;67068;52.116;4.440;2023-02-28T17:12:33;42.78;;;12.23;;
77872;SDS011;67068;52.116;4.440;2023-02-28T17:14:58;43.63;;;15.00;;
77872;SDS011;67068;52.116;4.440;2023-02-28T17:17:23;112.40;;;43.70;;
77872;SDS011;67068;52.116;4.440;2023-02-28T17:19:48;133.50;;;55.50;;